Terminal Aerodrome Forecast
Issued by NWS

Home | Current Version | Previous Version | Text Only | Print | Product List | Glossary On
Versions: 1 2 3 4 5 6 7 8 9 10 11 12 13 14 15 16 17 18 19 20 21 22 23 24 25 26
000
FTUS45 KBYZ 261133
TAFLVM
TAF
KLVM 261133Z 2612/2712 VRB06KT P6SM SCT120
     FM261900 08007G15KT P6SM VCTS SCT080CB BKN120
     FM270400 VRB06KT P6SM VCSH BKN080
     FM270900 30007KT P6SM SCT100=

USA.gov is the U.S. government's official web portal to all federal, state and local government web resources and services.